createdAt,value
2023-03-13T00:01:01.299Z,1.88
2023-03-13T00:03:28.244Z,2.05
2023-03-13T00:05:58.761Z,1.45
2023-03-13T00:08:28.597Z,1.77
2023-03-13T00:10:55.450Z,1.70
2023-03-13T00:13:22.989Z,1.80
2023-03-13T00:15:49.778Z,2.17
2023-03-13T00:18:16.715Z,1.80
2023-03-13T00:20:43.382Z,2.22
2023-03-13T00:23:10.024Z,1.70
2023-03-13T00:25:36.704Z,1.58
2023-03-13T00:28:03.331Z,1.60
2023-03-13T00:30:30.254Z,2.15
2023-03-13T00:32:56.999Z,1.75
2023-03-13T00:35:23.742Z,2.00
2023-03-13T00:37:50.433Z,2.47
2023-03-13T00:40:17.155Z,2.42
2023-03-13T00:42:43.929Z,1.98
2023-03-13T00:45:10.799Z,1.75
2023-03-13T00:47:37.524Z,2.13
2023-03-13T00:50:04.688Z,1.52
2023-03-13T00:52:31.392Z,1.83
2023-03-13T00:54:58.161Z,1.77
2023-03-13T00:57:24.852Z,1.70
2023-03-13T00:59:51.547Z,1.60
2023-03-13T01:02:18.304Z,1.88
2023-03-13T01:04:45.026Z,1.70
2023-03-13T01:07:11.680Z,1.75
2023-03-13T01:09:38.357Z,1.70
2023-03-13T01:12:05.328Z,1.38
2023-03-13T01:14:31.973Z,1.60
2023-03-13T01:16:58.768Z,1.80
2023-03-13T01:19:25.412Z,1.88
2023-03-13T01:21:52.336Z,1.40
2023-03-13T01:24:20.273Z,1.60
2023-03-13T01:26:47.416Z,1.58
2023-03-13T01:29:15.759Z,1.40
2023-03-13T01:31:42.645Z,1.50
2023-03-13T01:34:10.895Z,1.55
2023-03-13T01:36:38.149Z,2.10
2023-03-13T01:39:05.884Z,1.15
2023-03-13T01:41:32.621Z,1.55
2023-03-13T01:43:59.854Z,1.45
2023-03-13T01:46:35.447Z,1.50
2023-03-13T01:52:01.255Z,1.25
2023-03-13T01:54:34.570Z,1.70
2023-03-13T01:57:04.187Z,1.05
2023-03-13T01:59:44.523Z,1.67
2023-03-13T02:02:11.996Z,1.20
2023-03-13T02:04:44.261Z,1.38
2023-03-13T02:07:17.333Z,1.40
2023-03-13T02:09:48.368Z,1.23
2023-03-13T02:12:18.593Z,1.95
2023-03-13T02:14:47.040Z,1.50
2023-03-13T02:17:14.361Z,1.35
2023-03-13T02:19:47.303Z,1.20
2023-03-13T02:22:28.118Z,1.70
2023-03-13T02:25:25.293Z,1.40
2023-03-13T02:28:09.443Z,1.75
2023-03-13T02:30:39.784Z,1.55
2023-03-13T02:33:06.496Z,1.17
2023-03-13T02:35:36.670Z,1.50
2023-03-13T02:38:10.644Z,1.30
2023-03-13T02:40:41.929Z,1.17
2023-03-13T02:43:32.232Z,1.60
2023-03-13T02:46:13.937Z,1.60
2023-03-13T02:48:47.052Z,1.23
2023-03-13T02:51:26.225Z,1.05
2023-03-13T02:53:58.043Z,1.83
2023-03-13T02:56:27.246Z,1.30
2023-03-13T02:58:55.171Z,1.17
2023-03-13T03:01:24.347Z,1.15
2023-03-13T03:03:51.851Z,1.30
2023-03-13T03:06:18.716Z,1.58
2023-03-13T03:08:46.348Z,1.25
2023-03-13T03:11:13.723Z,1.52
2023-03-13T03:13:42.176Z,1.17
2023-03-13T03:16:10.943Z,1.60
2023-03-13T03:18:38.544Z,1.40
2023-03-13T03:21:06.592Z,1.23
2023-03-13T03:26:05.949Z,1.25
2023-03-13T03:28:33.498Z,1.65
2023-03-13T03:31:11.891Z,1.50
2023-03-13T03:33:40.471Z,1.13
2023-03-13T03:36:14.038Z,1.20
2023-03-13T03:38:41.841Z,1.02
2023-03-13T03:41:11.924Z,1.30
2023-03-13T03:43:38.861Z,1.35
2023-03-13T03:46:07.861Z,1.95
2023-03-13T03:48:35.152Z,1.50
2023-03-13T03:51:04.823Z,1.23
2023-03-13T03:53:34.084Z,1.35
2023-03-13T03:56:01.469Z,1.33
2023-03-13T03:58:28.226Z,2.08
2023-03-13T04:01:01.696Z,1.20
2023-03-13T04:03:28.524Z,1.40
2023-03-13T04:05:55.844Z,1.35
2023-03-13T04:08:24.701Z,1.10
2023-03-13T04:10:51.783Z,1.42
2023-03-13T04:13:22.276Z,1.23
2023-03-13T04:15:49.650Z,1.40
2023-03-13T04:18:17.515Z,1.30
2023-03-13T04:20:44.818Z,1.35
2023-03-13T04:23:12.148Z,1.20
2023-03-13T04:25:38.791Z,1.58
2023-03-13T04:28:09.014Z,1.40
2023-03-13T04:30:41.157Z,1.27
2023-03-13T04:33:10.538Z,1.67
2023-03-13T04:35:52.956Z,1.30
2023-03-13T04:38:43.386Z,1.42
2023-03-13T04:41:28.591Z,1.23
2023-03-13T04:44:15.281Z,1.17
2023-03-13T04:46:56.480Z,1.15
2023-03-13T04:49:48.925Z,1.33
2023-03-13T04:52:51.073Z,1.30
2023-03-13T04:55:36.216Z,1.50
2023-03-13T04:58:22.222Z,1.27
2023-03-13T05:01:05.052Z,1.75
2023-03-13T05:03:50.760Z,1.30
2023-03-13T05:06:36.581Z,1.17
2023-03-13T05:09:14.812Z,2.28
2023-03-13T05:12:04.804Z,1.60
2023-03-13T05:14:52.609Z,1.17
2023-03-13T05:17:54.863Z,2.20
2023-03-13T05:20:40.439Z,1.50
2023-03-13T05:23:07.174Z,1.08
2023-03-13T05:25:33.830Z,1.17
2023-03-13T05:28:14.105Z,1.20
2023-03-13T05:30:50.007Z,1.55
2023-03-13T05:33:29.749Z,1.52
2023-03-13T05:36:15.008Z,1.13
2023-03-13T05:39:17.048Z,1.30
2023-03-13T05:42:00.964Z,1.60
2023-03-13T05:44:42.377Z,1.30
2023-03-13T05:47:27.494Z,1.20
2023-03-13T05:50:07.834Z,1.27
2023-03-13T05:52:55.727Z,0.90
2023-03-13T05:55:51.602Z,0.88
2023-03-13T05:58:40.854Z,0.90
2023-03-13T06:01:28.797Z,1.10
2023-03-13T06:04:03.716Z,0.90
2023-03-13T06:06:33.642Z,0.90
2023-03-13T06:09:00.798Z,1.30
2023-03-13T06:11:30.614Z,1.23
2023-03-13T06:13:57.409Z,1.38
2023-03-13T06:16:33.826Z,1.05
2023-03-13T06:19:19.228Z,0.75
2023-03-13T06:21:46.188Z,0.68
2023-03-13T06:24:12.942Z,0.80
2023-03-13T06:26:39.587Z,0.93
2023-03-13T06:29:06.254Z,1.00
2023-03-13T06:31:32.985Z,0.80
2023-03-13T06:33:59.774Z,0.93
2023-03-13T06:36:26.566Z,0.90
2023-03-13T06:38:53.222Z,1.00
2023-03-13T06:41:19.891Z,0.93
2023-03-13T06:43:46.593Z,0.90
2023-03-13T06:46:18.400Z,1.02
2023-03-13T06:48:46.447Z,1.00
2023-03-13T06:51:14.852Z,1.27
2023-03-13T06:53:42.180Z,1.05
2023-03-13T06:56:09.307Z,1.30
2023-03-13T06:58:36.511Z,1.20
2023-03-13T07:01:11.907Z,1.10
2023-03-13T07:03:39.167Z,0.75
2023-03-13T07:06:06.209Z,0.85
2023-03-13T07:08:33.499Z,0.77
2023-03-13T07:11:02.707Z,0.63
2023-03-13T07:13:29.635Z,0.80
2023-03-13T07:15:57.131Z,1.10
2023-03-13T07:18:23.955Z,1.10
2023-03-13T07:20:58.947Z,0.80
2023-03-13T07:23:28.114Z,0.70
2023-03-13T07:26:11.140Z,0.80
2023-03-13T07:28:38.111Z,0.70
2023-03-13T07:31:11.062Z,0.60
2023-03-13T07:33:38.183Z,0.50
2023-03-13T07:36:05.265Z,0.77
2023-03-13T07:38:31.997Z,0.60
2023-03-13T07:40:59.037Z,0.60
2023-03-13T07:43:26.491Z,0.73
2023-03-13T07:45:58.905Z,0.93
2023-03-13T07:48:29.461Z,0.43
2023-03-13T07:50:56.885Z,0.70
2023-03-13T07:53:23.843Z,0.63
2023-03-13T07:56:05.485Z,0.60
2023-03-13T07:58:35.130Z,0.80
2023-03-13T08:01:10.036Z,0.40
2023-03-13T08:03:38.119Z,0.73
2023-03-13T08:06:08.466Z,0.73
2023-03-13T08:08:35.865Z,0.70
2023-03-13T08:11:09.491Z,0.50
2023-03-13T08:13:37.376Z,1.00
2023-03-13T08:16:17.772Z,1.25
2023-03-13T08:18:47.245Z,0.95
2023-03-13T08:21:16.544Z,0.85
2023-03-13T08:23:43.765Z,1.13
2023-03-13T08:26:16.574Z,1.40
2023-03-13T08:28:45.423Z,0.70
2023-03-13T08:31:20.051Z,0.60
2023-03-13T08:33:47.813Z,0.50
2023-03-13T08:36:14.541Z,0.45
2023-03-13T08:38:46.390Z,0.60
2023-03-13T08:41:15.025Z,0.77
2023-03-13T08:43:42.110Z,0.55
2023-03-13T08:46:09.037Z,0.52
2023-03-13T08:48:35.800Z,0.40
2023-03-13T08:51:08.132Z,0.68
2023-03-13T08:53:35.989Z,0.50
2023-03-13T08:56:04.456Z,0.63
2023-03-13T08:58:31.780Z,0.80
2023-03-13T09:01:07.088Z,0.90
2023-03-13T09:03:34.131Z,0.65
2023-03-13T09:06:01.787Z,0.60
2023-03-13T09:08:30.312Z,0.80
2023-03-13T09:11:01.235Z,0.50
2023-03-13T09:13:29.804Z,0.50
2023-03-13T09:16:01.124Z,0.60
2023-03-13T09:18:28.910Z,0.45
2023-03-13T09:20:55.799Z,0.50
2023-03-13T09:23:24.004Z,0.50
2023-03-13T09:25:55.711Z,0.90
2023-03-13T09:28:23.903Z,0.90
2023-03-13T09:30:50.669Z,0.68
2023-03-13T09:33:18.834Z,0.80
2023-03-13T09:35:51.181Z,1.10
2023-03-13T09:38:19.502Z,0.80
2023-03-13T09:41:04.848Z,0.75
2023-03-13T09:43:47.689Z,0.95
2023-03-13T09:46:26.611Z,0.75
2023-03-13T09:48:59.316Z,0.60
2023-03-13T09:51:29.857Z,0.50
2023-03-13T09:54:04.514Z,0.98
2023-03-13T09:56:40.877Z,1.05
2023-03-13T09:59:19.999Z,1.92
2023-03-13T10:01:49.459Z,1.13
2023-03-13T10:04:19.240Z,0.90
2023-03-13T10:06:47.756Z,1.20
2023-03-13T10:09:22.785Z,0.73
2023-03-13T10:12:07.437Z,0.45
2023-03-13T10:14:44.020Z,0.60
2023-03-13T10:17:15.952Z,0.90
2023-03-13T10:19:47.477Z,0.75
2023-03-13T10:22:21.903Z,0.70
2023-03-13T10:25:29.127Z,0.40
2023-03-13T10:27:56.552Z,0.57
2023-03-13T10:30:32.010Z,0.63
2023-03-13T10:33:24.846Z,1.20
2023-03-13T10:36:19.630Z,1.20
2023-03-13T10:38:51.872Z,1.00
2023-03-13T10:41:38.787Z,0.88
2023-03-13T10:44:12.885Z,1.10
2023-03-13T10:46:43.032Z,1.10
2023-03-13T10:49:24.338Z,1.10
2023-03-13T10:52:02.572Z,1.23
2023-03-13T10:54:31.896Z,1.50
2023-03-13T10:57:20.585Z,0.63
2023-03-13T10:59:52.091Z,1.00
2023-03-13T11:02:35.939Z,1.30
2023-03-13T11:05:23.737Z,0.80
2023-03-13T11:07:51.167Z,0.80
2023-03-13T11:10:22.204Z,1.15
2023-03-13T11:12:54.156Z,0.75
2023-03-13T11:15:42.113Z,0.90
2023-03-13T11:18:22.466Z,0.93
2023-03-13T11:20:49.781Z,1.20
2023-03-13T11:23:29.124Z,0.80
2023-03-13T11:26:14.767Z,1.15
2023-03-13T11:29:03.205Z,1.25
2023-03-13T11:31:35.034Z,1.00
2023-03-13T11:34:27.728Z,1.00
2023-03-13T11:37:04.877Z,0.93
2023-03-13T11:39:40.472Z,1.00
2023-03-13T11:42:46.591Z,1.58
2023-03-13T11:45:22.480Z,1.27
2023-03-13T11:48:09.883Z,1.50
2023-03-13T11:50:36.698Z,1.10
2023-03-13T11:53:36.522Z,0.80
2023-03-13T11:56:43.553Z,1.00
2023-03-13T11:59:35.875Z,0.80
2023-03-13T12:04:47.540Z,0.93
2023-03-13T12:07:23.366Z,0.90
2023-03-13T12:09:55.515Z,0.90
2023-03-13T12:12:27.835Z,0.80
2023-03-13T12:15:26.841Z,1.20
2023-03-13T12:18:08.289Z,0.68
2023-03-13T12:20:53.430Z,0.90
2023-03-13T12:23:28.997Z,0.63
2023-03-13T12:26:05.094Z,1.00
2023-03-13T12:28:43.100Z,0.90
2023-03-13T12:31:25.458Z,0.65
2023-03-13T12:34:34.665Z,0.90
2023-03-13T12:37:21.383Z,0.90
2023-03-13T12:40:01.268Z,0.65
2023-03-13T12:42:46.440Z,0.70
2023-03-13T12:45:19.715Z,0.80
2023-03-13T12:47:52.398Z,0.80
2023-03-13T12:50:34.316Z,0.73
2023-03-13T12:53:21.113Z,0.90
2023-03-13T12:56:05.370Z,0.88
2023-03-13T12:58:48.920Z,0.90
2023-03-13T13:01:24.689Z,0.80
2023-03-13T13:04:04.310Z,0.70
2023-03-13T13:07:00.566Z,1.27
2023-03-13T13:09:33.578Z,0.60
2023-03-13T13:12:21.567Z,0.80
2023-03-13T13:14:48.201Z,0.70
2023-03-13T13:17:34.490Z,0.73
2023-03-13T13:20:30.641Z,0.75
2023-03-13T13:23:16.165Z,0.90
2023-03-13T13:25:42.887Z,0.93
2023-03-13T13:28:26.547Z,0.85
2023-03-13T13:30:56.264Z,0.80
2023-03-13T13:33:30.588Z,1.20
2023-03-13T13:36:09.597Z,0.80
2023-03-13T13:38:40.389Z,0.80
2023-03-13T13:41:10.275Z,0.90
2023-03-13T13:43:45.329Z,0.93
2023-03-13T13:46:30.270Z,0.90
2023-03-13T13:49:18.724Z,1.20
2023-03-13T13:52:06.777Z,1.00
2023-03-13T13:54:55.828Z,1.05
2023-03-13T13:57:25.981Z,1.20
2023-03-13T13:59:59.555Z,0.93
2023-03-13T14:02:37.231Z,1.02
2023-03-13T14:05:07.976Z,1.27
2023-03-13T14:07:46.463Z,1.10
2023-03-13T14:10:39.801Z,0.90
2023-03-13T14:13:20.743Z,1.13
2023-03-13T14:15:55.245Z,1.20
2023-03-13T14:18:23.354Z,1.00
2023-03-13T14:20:49.971Z,0.88
2023-03-13T14:23:45.229Z,1.10
2023-03-13T14:26:21.991Z,1.08
2023-03-13T14:28:55.298Z,0.98
2023-03-13T14:31:25.432Z,1.20
2023-03-13T14:33:52.487Z,0.90
2023-03-13T14:36:19.191Z,1.05
2023-03-13T14:39:00.126Z,0.70
2023-03-13T14:41:29.410Z,0.90
2023-03-13T14:44:03.528Z,0.50
2023-03-13T14:46:33.492Z,0.80
2023-03-13T14:49:16.831Z,0.93
2023-03-13T14:51:44.049Z,0.80
2023-03-13T14:54:32.355Z,0.73
2023-03-13T14:57:06.977Z,0.63
2023-03-13T14:59:33.655Z,0.60
2023-03-13T15:02:15.291Z,0.75
2023-03-13T15:04:48.968Z,0.60
2023-03-13T15:07:15.760Z,0.73
2023-03-13T15:09:43.539Z,1.17
2023-03-13T15:12:16.543Z,0.70
2023-03-13T15:14:46.445Z,0.52
2023-03-13T15:17:21.108Z,0.80
2023-03-13T15:19:49.661Z,0.60
2023-03-13T15:22:17.985Z,0.80
2023-03-13T15:24:59.630Z,0.73
2023-03-13T15:27:31.512Z,0.82
2023-03-13T15:29:58.181Z,0.60
2023-03-13T15:32:32.813Z,0.80
2023-03-13T15:35:01.930Z,0.50
2023-03-13T15:37:30.206Z,0.63
2023-03-13T15:39:58.192Z,0.65
2023-03-13T15:42:25.009Z,0.80
2023-03-13T15:44:51.652Z,0.55
2023-03-13T15:47:20.624Z,0.70
2023-03-13T15:49:47.846Z,0.60
2023-03-13T15:52:18.924Z,0.55
2023-03-13T15:54:46.769Z,0.83
2023-03-13T15:57:16.067Z,0.52
2023-03-13T15:59:44.165Z,0.75
2023-03-13T16:02:16.375Z,0.60
2023-03-13T16:04:44.060Z,0.90
2023-03-13T16:07:12.512Z,0.70
2023-03-13T16:09:40.380Z,0.50
2023-03-13T16:12:07.615Z,0.50
2023-03-13T16:14:34.876Z,0.60
2023-03-13T16:17:02.914Z,1.00
2023-03-13T16:19:30.798Z,0.90
2023-03-13T16:21:57.470Z,0.80
2023-03-13T16:24:24.187Z,1.10
2023-03-13T16:26:50.926Z,1.00
2023-03-13T16:29:17.572Z,0.57
2023-03-13T16:31:44.230Z,0.40
2023-03-13T16:34:10.937Z,0.40
2023-03-13T16:36:37.863Z,0.80
2023-03-13T16:39:09.105Z,0.70
2023-03-13T16:41:35.862Z,0.90
2023-03-13T16:44:02.965Z,0.57
2023-03-13T16:46:37.689Z,1.00
2023-03-13T16:49:05.078Z,0.65
2023-03-13T16:51:32.365Z,0.70
2023-03-13T16:54:00.541Z,0.93
2023-03-13T16:56:33.733Z,0.57
2023-03-13T16:59:03.096Z,1.50
2023-03-13T17:01:30.451Z,0.63
2023-03-13T17:03:58.776Z,1.23
2023-03-13T17:06:28.675Z,2.58
2023-03-13T17:08:56.401Z,2.20
2023-03-13T17:11:23.638Z,1.30
2023-03-13T17:13:52.298Z,1.83
2023-03-13T17:16:25.039Z,0.90
2023-03-13T17:18:53.790Z,1.00
2023-03-13T17:21:23.816Z,0.90
2023-03-13T17:23:51.282Z,0.70
2023-03-13T17:26:21.628Z,0.73
2023-03-13T17:28:49.916Z,0.60
2023-03-13T17:31:17.532Z,0.60
2023-03-13T17:33:44.976Z,0.98
2023-03-13T17:36:16.051Z,0.80
2023-03-13T17:38:43.429Z,1.13
2023-03-13T17:41:13.153Z,0.80
2023-03-13T17:43:40.532Z,0.60
2023-03-13T17:46:23.571Z,0.73
2023-03-13T17:48:52.911Z,1.08
2023-03-13T17:51:25.393Z,0.80
2023-03-13T17:53:53.371Z,0.63
2023-03-13T17:56:29.921Z,0.82
2023-03-13T17:58:59.016Z,0.80
2023-03-13T18:01:28.958Z,1.27
2023-03-13T18:03:55.899Z,0.70
2023-03-13T18:06:33.552Z,0.90
2023-03-13T18:09:02.972Z,0.60
2023-03-13T18:11:29.673Z,0.70
2023-03-13T18:13:56.468Z,0.88
2023-03-13T18:16:27.314Z,0.60
2023-03-13T18:18:54.509Z,0.88
2023-03-13T18:21:22.987Z,0.93
2023-03-13T18:23:50.049Z,0.88
2023-03-13T18:26:20.430Z,1.15
2023-03-13T18:28:47.223Z,0.93
2023-03-13T18:31:13.909Z,0.80
2023-03-13T18:33:41.788Z,0.60
2023-03-13T18:36:20.324Z,0.50
2023-03-13T18:38:48.922Z,0.60
2023-03-13T18:41:16.353Z,0.90
2023-03-13T18:43:44.046Z,1.08
2023-03-13T18:46:23.511Z,0.88
2023-03-13T18:48:51.251Z,0.80
2023-03-13T18:51:19.853Z,0.70
2023-03-13T18:53:47.195Z,0.68
2023-03-13T18:56:34.492Z,0.80
2023-03-13T18:59:01.232Z,0.85
2023-03-13T19:01:30.767Z,0.63
2023-03-13T19:04:00.072Z,0.80
2023-03-13T19:06:32.853Z,0.60
2023-03-13T19:11:29.635Z,0.90
2023-03-13T19:13:57.214Z,0.60
2023-03-13T19:16:49.870Z,0.90
2023-03-13T19:19:21.611Z,0.70
2023-03-13T19:21:49.455Z,1.27
2023-03-13T19:24:16.457Z,0.75
2023-03-13T19:26:46.681Z,0.80
2023-03-13T19:29:21.104Z,0.77
2023-03-13T19:31:48.131Z,0.80
2023-03-13T19:34:17.307Z,0.82
2023-03-13T19:36:47.172Z,1.00
2023-03-13T19:39:16.545Z,0.75
2023-03-13T19:41:43.606Z,0.43
2023-03-13T19:44:10.327Z,0.50
2023-03-13T19:46:43.188Z,0.40
2023-03-13T19:49:12.682Z,0.47
2023-03-13T19:51:39.461Z,0.40
2023-03-13T19:54:06.453Z,0.45
2023-03-13T19:56:33.681Z,0.60
2023-03-13T19:59:21.224Z,0.50
2023-03-13T20:01:48.182Z,0.60
2023-03-13T20:04:15.474Z,0.43
2023-03-13T20:06:43.587Z,0.40
2023-03-13T20:09:14.768Z,0.50
2023-03-13T20:11:42.343Z,0.30
2023-03-13T20:14:09.885Z,0.50
2023-03-13T20:16:37.784Z,0.50
2023-03-13T20:19:04.650Z,0.50
2023-03-13T20:21:33.934Z,0.60
2023-03-13T20:24:01.352Z,0.50
2023-03-13T20:26:29.371Z,0.45
2023-03-13T20:28:56.882Z,0.50
2023-03-13T20:31:29.071Z,0.88
2023-03-13T20:33:57.247Z,0.70
2023-03-13T20:36:24.660Z,0.80
2023-03-13T20:38:52.214Z,0.70
2023-03-13T20:41:25.021Z,0.98
2023-03-13T20:43:52.647Z,0.50
2023-03-13T20:46:19.952Z,0.70
2023-03-13T20:48:46.830Z,0.50
2023-03-13T20:51:13.585Z,0.40
2023-03-13T20:53:42.085Z,0.30
2023-03-13T20:56:10.724Z,0.75
2023-03-13T20:58:37.597Z,0.50
2023-03-13T21:01:05.513Z,0.70
2023-03-13T21:03:35.521Z,0.52
2023-03-13T21:06:10.998Z,0.52
2023-03-13T21:08:38.917Z,0.50
2023-03-13T21:11:20.684Z,0.60
2023-03-13T21:13:47.832Z,0.55
2023-03-13T21:16:15.676Z,0.70
2023-03-13T21:18:42.817Z,0.50
2023-03-13T21:21:13.326Z,0.50
2023-03-13T21:23:40.088Z,0.40
2023-03-13T21:26:07.107Z,0.38
2023-03-13T21:28:33.797Z,0.20
2023-03-13T21:31:08.330Z,0.50
2023-03-13T21:33:35.177Z,0.50
2023-03-13T21:36:02.039Z,0.30
2023-03-13T21:38:28.832Z,0.30
2023-03-13T21:40:55.502Z,0.20
2023-03-13T21:43:23.845Z,0.30
2023-03-13T21:45:50.556Z,0.40
2023-03-13T21:48:17.231Z,0.40
2023-03-13T21:50:43.873Z,0.40
2023-03-13T21:53:10.767Z,0.30
2023-03-13T21:55:39.946Z,0.43
2023-03-13T21:58:06.929Z,0.35
2023-03-13T22:00:34.036Z,0.40
2023-03-13T22:03:01.021Z,0.40
2023-03-13T22:05:27.773Z,0.40
2023-03-13T22:07:55.948Z,0.40
2023-03-13T22:10:22.728Z,0.47
2023-03-13T22:12:49.453Z,0.50
2023-03-13T22:15:16.106Z,0.50
2023-03-13T22:17:42.884Z,0.38
2023-03-13T22:20:10.409Z,0.50
2023-03-13T22:22:37.143Z,0.60
2023-03-13T22:25:04.541Z,0.50
2023-03-13T22:27:31.210Z,0.40
2023-03-13T22:29:57.906Z,0.30
2023-03-13T22:32:25.893Z,0.52
2023-03-13T22:34:52.680Z,0.50
2023-03-13T22:37:21.826Z,1.02
2023-03-13T22:39:50.163Z,0.70
2023-03-13T22:42:16.920Z,0.30
2023-03-13T22:44:43.609Z,0.40
2023-03-13T22:47:10.290Z,0.70
2023-03-13T22:49:36.889Z,0.60
2023-03-13T22:52:04.030Z,0.60
2023-03-13T22:54:30.924Z,0.75
2023-03-13T22:56:57.812Z,0.57
2023-03-13T22:59:24.666Z,0.90
2023-03-13T23:01:51.344Z,0.70
2023-03-13T23:04:18.078Z,0.70
2023-03-13T23:06:44.909Z,0.70
2023-03-13T23:09:11.724Z,0.50
2023-03-13T23:11:38.488Z,0.50
2023-03-13T23:14:05.188Z,0.50
2023-03-13T23:16:32.084Z,0.50
2023-03-13T23:18:58.775Z,0.73
2023-03-13T23:21:25.460Z,0.40
2023-03-13T23:23:54.119Z,0.60
2023-03-13T23:26:20.906Z,0.40
2023-03-13T23:28:47.753Z,0.45
2023-03-13T23:31:17.114Z,0.50
2023-03-13T23:33:44.637Z,0.50
2023-03-13T23:36:14.881Z,0.60
2023-03-13T23:38:41.738Z,0.57
2023-03-13T23:41:10.808Z,0.40
2023-03-13T23:43:37.853Z,0.50
2023-03-13T23:46:05.226Z,0.80
2023-03-13T23:48:32.268Z,0.57
2023-03-13T23:50:59.062Z,0.80
2023-03-13T23:53:25.724Z,0.60
2023-03-13T23:55:58.815Z,0.50
2023-03-13T23:58:25.724Z,0.55
